sensor_id;sensor_type;location;lat;lon;timestamp;P1;durP1;ratioP1;P2;durP2;ratioP2
62202;SDS011;48199;49.138;7.414;2022-08-19T00:00:00;17.77;;;14.77;;
62202;SDS011;48199;49.138;7.414;2022-08-19T00:02:29;20.55;;;14.85;;
62202;SDS011;48199;49.138;7.414;2022-08-19T00:04:54;18.92;;;14.48;;
62202;SDS011;48199;49.138;7.414;2022-08-19T00:07:20;17.23;;;14.60;;
62202;SDS011;48199;49.138;7.414;2022-08-19T00:09:46;18.00;;;13.82;;
62202;SDS011;48199;49.138;7.414;2022-08-19T00:12:11;19.23;;;14.18;;
62202;SDS011;48199;49.138;7.414;2022-08-19T00:14:37;18.25;;;13.75;;
62202;SDS011;48199;49.138;7.414;2022-08-19T00:17:04;18.00;;;14.02;;
62202;SDS011;48199;49.138;7.414;2022-08-19T00:19:31;20.20;;;14.93;;
62202;SDS011;48199;49.138;7.414;2022-08-19T00:21:57;17.73;;;14.18;;
62202;SDS011;48199;49.138;7.414;2022-08-19T00:24:24;19.70;;;14.20;;
62202;SDS011;48199;49.138;7.414;2022-08-19T00:26:50;20.58;;;15.25;;
62202;SDS011;48199;49.138;7.414;2022-08-19T00:29:17;22.15;;;15.63;;
62202;SDS011;48199;49.138;7.414;2022-08-19T00:31:44;20.95;;;15.05;;
62202;SDS011;48199;49.138;7.414;2022-08-19T00:34:12;19.23;;;15.63;;
62202;SDS011;48199;49.138;7.414;2022-08-19T00:36:39;17.90;;;14.52;;
62202;SDS011;48199;49.138;7.414;2022-08-19T00:39:05;18.63;;;13.85;;
62202;SDS011;48199;49.138;7.414;2022-08-19T00:41:30;20.25;;;15.98;;
62202;SDS011;48199;49.138;7.414;2022-08-19T00:43:57;19.77;;;15.48;;
62202;SDS011;48199;49.138;7.414;2022-08-19T00:46:24;18.13;;;15.15;;
62202;SDS011;48199;49.138;7.414;2022-08-19T00:48:50;21.30;;;15.00;;
62202;SDS011;48199;49.138;7.414;2022-08-19T00:51:16;22.17;;;14.95;;
62202;SDS011;48199;49.138;7.414;2022-08-19T00:53:41;17.27;;;14.95;;
62202;SDS011;48199;49.138;7.414;2022-08-19T00:56:08;27.40;;;17.83;;
62202;SDS011;48199;49.138;7.414;2022-08-19T00:58:34;20.40;;;15.50;;
62202;SDS011;48199;49.138;7.414;2022-08-19T01:01:01;24.55;;;17.55;;
62202;SDS011;48199;49.138;7.414;2022-08-19T01:03:28;25.50;;;18.50;;
62202;SDS011;48199;49.138;7.414;2022-08-19T01:05:54;24.05;;;18.48;;
62202;SDS011;48199;49.138;7.414;2022-08-19T01:08:20;24.30;;;18.42;;
62202;SDS011;48199;49.138;7.414;2022-08-19T01:10:48;22.92;;;17.73;;
62202;SDS011;48199;49.138;7.414;2022-08-19T01:13:17;25.52;;;18.10;;
62202;SDS011;48199;49.138;7.414;2022-08-19T01:15:46;24.75;;;18.63;;
62202;SDS011;48199;49.138;7.414;2022-08-19T01:18:17;28.85;;;17.75;;
62202;SDS011;48199;49.138;7.414;2022-08-19T01:20:43;27.17;;;18.65;;
62202;SDS011;48199;49.138;7.414;2022-08-19T01:23:10;29.02;;;21.63;;
62202;SDS011;48199;49.138;7.414;2022-08-19T01:25:47;26.55;;;17.95;;
62202;SDS011;48199;49.138;7.414;2022-08-19T01:28:20;28.52;;;19.10;;
62202;SDS011;48199;49.138;7.414;2022-08-19T01:30:51;25.92;;;18.83;;
62202;SDS011;48199;49.138;7.414;2022-08-19T01:33:17;24.27;;;18.38;;
62202;SDS011;48199;49.138;7.414;2022-08-19T01:35:44;25.55;;;18.83;;
62202;SDS011;48199;49.138;7.414;2022-08-19T01:38:17;29.55;;;21.02;;
62202;SDS011;48199;49.138;7.414;2022-08-19T01:40:46;29.63;;;21.38;;
62202;SDS011;48199;49.138;7.414;2022-08-19T01:43:11;27.80;;;20.48;;
62202;SDS011;48199;49.138;7.414;2022-08-19T01:45:37;28.98;;;20.73;;
62202;SDS011;48199;49.138;7.414;2022-08-19T01:48:05;32.67;;;22.35;;
62202;SDS011;48199;49.138;7.414;2022-08-19T01:50:31;30.73;;;21.77;;
62202;SDS011;48199;49.138;7.414;2022-08-19T01:52:58;34.13;;;23.25;;
62202;SDS011;48199;49.138;7.414;2022-08-19T01:55:24;38.42;;;25.83;;
62202;SDS011;48199;49.138;7.414;2022-08-19T01:57:51;31.35;;;22.77;;
62202;SDS011;48199;49.138;7.414;2022-08-19T02:00:19;38.75;;;25.75;;
62202;SDS011;48199;49.138;7.414;2022-08-19T02:02:48;35.30;;;22.38;;
62202;SDS011;48199;49.138;7.414;2022-08-19T02:05:13;32.90;;;22.90;;
62202;SDS011;48199;49.138;7.414;2022-08-19T02:07:39;33.10;;;22.55;;
62202;SDS011;48199;49.138;7.414;2022-08-19T02:10:06;38.85;;;24.02;;
62202;SDS011;48199;49.138;7.414;2022-08-19T02:12:35;31.35;;;22.48;;
62202;SDS011;48199;49.138;7.414;2022-08-19T02:15:01;29.60;;;22.83;;
62202;SDS011;48199;49.138;7.414;2022-08-19T02:17:28;35.15;;;24.02;;
62202;SDS011;48199;49.138;7.414;2022-08-19T02:19:55;29.42;;;21.20;;
62202;SDS011;48199;49.138;7.414;2022-08-19T02:22:21;32.30;;;23.52;;
62202;SDS011;48199;49.138;7.414;2022-08-19T02:24:47;32.00;;;20.42;;
62202;SDS011;48199;49.138;7.414;2022-08-19T02:27:13;27.30;;;19.67;;
62202;SDS011;48199;49.138;7.414;2022-08-19T02:29:38;31.95;;;23.30;;
62202;SDS011;48199;49.138;7.414;2022-08-19T02:32:04;31.52;;;23.33;;
62202;SDS011;48199;49.138;7.414;2022-08-19T02:34:30;25.63;;;18.70;;
62202;SDS011;48199;49.138;7.414;2022-08-19T02:36:55;28.58;;;20.23;;
62202;SDS011;48199;49.138;7.414;2022-08-19T02:39:20;29.63;;;20.75;;
62202;SDS011;48199;49.138;7.414;2022-08-19T02:41:46;28.48;;;19.35;;
62202;SDS011;48199;49.138;7.414;2022-08-19T02:44:11;30.00;;;21.17;;
62202;SDS011;48199;49.138;7.414;2022-08-19T02:46:37;28.83;;;20.60;;
62202;SDS011;48199;49.138;7.414;2022-08-19T02:49:03;30.75;;;20.77;;
62202;SDS011;48199;49.138;7.414;2022-08-19T02:51:41;32.30;;;22.60;;
62202;SDS011;48199;49.138;7.414;2022-08-19T02:54:09;32.90;;;21.77;;
62202;SDS011;48199;49.138;7.414;2022-08-19T02:56:38;32.60;;;21.38;;
62202;SDS011;48199;49.138;7.414;2022-08-19T02:59:05;28.60;;;21.60;;
62202;SDS011;48199;49.138;7.414;2022-08-19T03:01:33;32.63;;;20.65;;
62202;SDS011;48199;49.138;7.414;2022-08-19T03:04:00;30.00;;;22.48;;
62202;SDS011;48199;49.138;7.414;2022-08-19T03:06:29;30.55;;;21.33;;
62202;SDS011;48199;49.138;7.414;2022-08-19T03:08:55;27.20;;;20.17;;
62202;SDS011;48199;49.138;7.414;2022-08-19T03:13:51;32.47;;;22.58;;
62202;SDS011;48199;49.138;7.414;2022-08-19T03:16:18;28.60;;;19.73;;
62202;SDS011;48199;49.138;7.414;2022-08-19T03:18:45;26.55;;;20.23;;
62202;SDS011;48199;49.138;7.414;2022-08-19T03:21:14;32.95;;;21.40;;
62202;SDS011;48199;49.138;7.414;2022-08-19T03:23:41;29.73;;;21.38;;
62202;SDS011;48199;49.138;7.414;2022-08-19T03:26:06;30.00;;;20.13;;
62202;SDS011;48199;49.138;7.414;2022-08-19T03:28:32;36.67;;;22.38;;
62202;SDS011;48199;49.138;7.414;2022-08-19T03:31:10;40.17;;;25.48;;
62202;SDS011;48199;49.138;7.414;2022-08-19T03:33:37;45.33;;;28.05;;
62202;SDS011;48199;49.138;7.414;2022-08-19T03:38:30;38.75;;;26.20;;
62202;SDS011;48199;49.138;7.414;2022-08-19T03:40:57;39.05;;;26.60;;
62202;SDS011;48199;49.138;7.414;2022-08-19T03:43:22;33.20;;;24.95;;
62202;SDS011;48199;49.138;7.414;2022-08-19T03:45:48;33.65;;;23.58;;
62202;SDS011;48199;49.138;7.414;2022-08-19T03:48:14;33.97;;;23.40;;
62202;SDS011;48199;49.138;7.414;2022-08-19T03:50:41;33.85;;;22.20;;
62202;SDS011;48199;49.138;7.414;2022-08-19T03:53:07;32.40;;;22.02;;
62202;SDS011;48199;49.138;7.414;2022-08-19T03:55:33;30.77;;;21.70;;
62202;SDS011;48199;49.138;7.414;2022-08-19T03:58:04;34.25;;;23.25;;
62202;SDS011;48199;49.138;7.414;2022-08-19T04:00:31;30.45;;;22.67;;
62202;SDS011;48199;49.138;7.414;2022-08-19T04:02:57;34.30;;;22.00;;
62202;SDS011;48199;49.138;7.414;2022-08-19T04:05:22;33.35;;;23.17;;
62202;SDS011;48199;49.138;7.414;2022-08-19T04:07:48;35.75;;;24.83;;
62202;SDS011;48199;49.138;7.414;2022-08-19T04:10:13;37.63;;;24.75;;
62202;SDS011;48199;49.138;7.414;2022-08-19T04:12:38;38.88;;;26.40;;
62202;SDS011;48199;49.138;7.414;2022-08-19T04:15:04;38.42;;;25.58;;
62202;SDS011;48199;49.138;7.414;2022-08-19T04:17:31;45.38;;;26.80;;
62202;SDS011;48199;49.138;7.414;2022-08-19T04:19:56;37.97;;;26.02;;
62202;SDS011;48199;49.138;7.414;2022-08-19T04:22:22;36.92;;;25.00;;
62202;SDS011;48199;49.138;7.414;2022-08-19T04:24:47;36.30;;;24.90;;
62202;SDS011;48199;49.138;7.414;2022-08-19T04:27:12;36.58;;;25.17;;
62202;SDS011;48199;49.138;7.414;2022-08-19T04:29:38;35.08;;;23.95;;
62202;SDS011;48199;49.138;7.414;2022-08-19T04:32:05;44.90;;;25.27;;
62202;SDS011;48199;49.138;7.414;2022-08-19T04:34:31;42.53;;;28.40;;
62202;SDS011;48199;49.138;7.414;2022-08-19T04:36:57;52.08;;;30.92;;
62202;SDS011;48199;49.138;7.414;2022-08-19T04:39:25;45.58;;;28.48;;
62202;SDS011;48199;49.138;7.414;2022-08-19T04:42:12;43.92;;;28.73;;
62202;SDS011;48199;49.138;7.414;2022-08-19T04:44:57;42.10;;;29.88;;
62202;SDS011;48199;49.138;7.414;2022-08-19T04:47:23;49.58;;;31.02;;
62202;SDS011;48199;49.138;7.414;2022-08-19T04:49:49;44.35;;;29.02;;
62202;SDS011;48199;49.138;7.414;2022-08-19T04:52:14;44.45;;;27.75;;
62202;SDS011;48199;49.138;7.414;2022-08-19T04:54:39;41.13;;;27.60;;
62202;SDS011;48199;49.138;7.414;2022-08-19T04:57:08;38.47;;;27.17;;
62202;SDS011;48199;49.138;7.414;2022-08-19T04:59:35;38.28;;;27.20;;
62202;SDS011;48199;49.138;7.414;2022-08-19T05:02:02;38.45;;;26.75;;
62202;SDS011;48199;49.138;7.414;2022-08-19T05:04:29;45.08;;;29.23;;
62202;SDS011;48199;49.138;7.414;2022-08-19T05:06:56;35.17;;;25.50;;
62202;SDS011;48199;49.138;7.414;2022-08-19T05:09:22;38.38;;;26.40;;
62202;SDS011;48199;49.138;7.414;2022-08-19T05:11:47;36.38;;;26.17;;
62202;SDS011;48199;49.138;7.414;2022-08-19T05:14:14;36.60;;;25.13;;
62202;SDS011;48199;49.138;7.414;2022-08-19T05:16:40;39.38;;;26.73;;
62202;SDS011;48199;49.138;7.414;2022-08-19T05:19:05;41.38;;;28.35;;
62202;SDS011;48199;49.138;7.414;2022-08-19T05:21:49;39.25;;;27.73;;
62202;SDS011;48199;49.138;7.414;2022-08-19T05:24:33;38.72;;;25.60;;
62202;SDS011;48199;49.138;7.414;2022-08-19T05:27:01;36.95;;;25.80;;
62202;SDS011;48199;49.138;7.414;2022-08-19T05:29:28;42.38;;;28.05;;
62202;SDS011;48199;49.138;7.414;2022-08-19T05:31:56;36.65;;;27.25;;
62202;SDS011;48199;49.138;7.414;2022-08-19T05:34:23;40.75;;;28.83;;
62202;SDS011;48199;49.138;7.414;2022-08-19T05:36:51;37.75;;;27.38;;
62202;SDS011;48199;49.138;7.414;2022-08-19T05:39:23;34.80;;;25.70;;
62202;SDS011;48199;49.138;7.414;2022-08-19T05:41:52;40.10;;;27.80;;
62202;SDS011;48199;49.138;7.414;2022-08-19T05:44:22;40.23;;;27.27;;
62202;SDS011;48199;49.138;7.414;2022-08-19T05:46:49;41.90;;;26.35;;
62202;SDS011;48199;49.138;7.414;2022-08-19T05:49:18;36.72;;;25.70;;
62202;SDS011;48199;49.138;7.414;2022-08-19T05:51:44;40.72;;;28.08;;
62202;SDS011;48199;49.138;7.414;2022-08-19T05:54:10;37.90;;;27.02;;
62202;SDS011;48199;49.138;7.414;2022-08-19T05:56:38;37.35;;;26.83;;
62202;SDS011;48199;49.138;7.414;2022-08-19T05:59:05;36.35;;;26.05;;
62202;SDS011;48199;49.138;7.414;2022-08-19T06:01:39;40.75;;;27.45;;
62202;SDS011;48199;49.138;7.414;2022-08-19T06:04:06;41.13;;;26.75;;
62202;SDS011;48199;49.138;7.414;2022-08-19T06:06:32;37.08;;;28.23;;
62202;SDS011;48199;49.138;7.414;2022-08-19T06:08:59;35.47;;;25.33;;
62202;SDS011;48199;49.138;7.414;2022-08-19T06:14:17;35.25;;;25.35;;
62202;SDS011;48199;49.138;7.414;2022-08-19T06:16:45;37.80;;;27.08;;
62202;SDS011;48199;49.138;7.414;2022-08-19T06:19:12;33.38;;;24.27;;
62202;SDS011;48199;49.138;7.414;2022-08-19T06:21:40;34.20;;;24.92;;
62202;SDS011;48199;49.138;7.414;2022-08-19T06:24:08;37.95;;;25.80;;
62202;SDS011;48199;49.138;7.414;2022-08-19T06:26:35;34.50;;;24.50;;
62202;SDS011;48199;49.138;7.414;2022-08-19T06:29:03;37.55;;;25.90;;
62202;SDS011;48199;49.138;7.414;2022-08-19T06:31:31;32.17;;;24.75;;
62202;SDS011;48199;49.138;7.414;2022-08-19T06:33:58;31.90;;;23.98;;
62202;SDS011;48199;49.138;7.414;2022-08-19T06:36:27;35.70;;;24.75;;
62202;SDS011;48199;49.138;7.414;2022-08-19T06:38:58;37.15;;;24.65;;
62202;SDS011;48199;49.138;7.414;2022-08-19T06:41:33;41.42;;;25.42;;
62202;SDS011;48199;49.138;7.414;2022-08-19T06:44:00;29.02;;;22.88;;
62202;SDS011;48199;49.138;7.414;2022-08-19T06:46:25;29.48;;;22.58;;
62202;SDS011;48199;49.138;7.414;2022-08-19T06:48:51;39.10;;;21.58;;
62202;SDS011;48199;49.138;7.414;2022-08-19T06:51:18;23.60;;;17.48;;
62202;SDS011;48199;49.138;7.414;2022-08-19T06:53:45;27.83;;;19.63;;
62202;SDS011;48199;49.138;7.414;2022-08-19T06:56:17;23.45;;;17.88;;
62202;SDS011;48199;49.138;7.414;2022-08-19T06:58:45;24.10;;;15.90;;
62202;SDS011;48199;49.138;7.414;2022-08-19T07:01:12;16.95;;;12.23;;
62202;SDS011;48199;49.138;7.414;2022-08-19T07:03:37;19.83;;;12.77;;
62202;SDS011;48199;49.138;7.414;2022-08-19T07:06:04;16.83;;;13.25;;
62202;SDS011;48199;49.138;7.414;2022-08-19T07:08:32;17.50;;;13.95;;
62202;SDS011;48199;49.138;7.414;2022-08-19T07:10:59;21.48;;;13.10;;
62202;SDS011;48199;49.138;7.414;2022-08-19T07:13:24;21.02;;;14.50;;
62202;SDS011;48199;49.138;7.414;2022-08-19T07:15:50;24.27;;;15.90;;
62202;SDS011;48199;49.138;7.414;2022-08-19T07:18:17;23.60;;;15.35;;
62202;SDS011;48199;49.138;7.414;2022-08-19T07:20:44;20.83;;;15.32;;
62202;SDS011;48199;49.138;7.414;2022-08-19T07:23:09;21.30;;;16.10;;
62202;SDS011;48199;49.138;7.414;2022-08-19T07:25:36;22.33;;;15.30;;
62202;SDS011;48199;49.138;7.414;2022-08-19T07:28:02;24.45;;;16.80;;
62202;SDS011;48199;49.138;7.414;2022-08-19T07:30:27;25.55;;;17.77;;
62202;SDS011;48199;49.138;7.414;2022-08-19T07:32:53;24.02;;;15.88;;
62202;SDS011;48199;49.138;7.414;2022-08-19T07:35:18;25.75;;;18.45;;
62202;SDS011;48199;49.138;7.414;2022-08-19T07:37:44;26.63;;;17.08;;
62202;SDS011;48199;49.138;7.414;2022-08-19T07:40:10;27.05;;;16.92;;
62202;SDS011;48199;49.138;7.414;2022-08-19T07:42:36;27.70;;;17.33;;
62202;SDS011;48199;49.138;7.414;2022-08-19T07:45:02;24.70;;;18.25;;
62202;SDS011;48199;49.138;7.414;2022-08-19T07:47:29;24.30;;;17.58;;
62202;SDS011;48199;49.138;7.414;2022-08-19T07:49:55;26.20;;;18.77;;
62202;SDS011;48199;49.138;7.414;2022-08-19T07:52:21;35.33;;;18.85;;
62202;SDS011;48199;49.138;7.414;2022-08-19T07:54:47;27.67;;;19.73;;
62202;SDS011;48199;49.138;7.414;2022-08-19T07:57:12;27.85;;;18.77;;
62202;SDS011;48199;49.138;7.414;2022-08-19T07:59:38;23.48;;;17.40;;
62202;SDS011;48199;49.138;7.414;2022-08-19T08:02:03;30.48;;;19.33;;
62202;SDS011;48199;49.138;7.414;2022-08-19T08:04:30;26.77;;;19.08;;
62202;SDS011;48199;49.138;7.414;2022-08-19T08:07:15;28.60;;;19.63;;
62202;SDS011;48199;49.138;7.414;2022-08-19T08:09:59;27.15;;;18.40;;
62202;SDS011;48199;49.138;7.414;2022-08-19T08:12:30;28.75;;;19.48;;
62202;SDS011;48199;49.138;7.414;2022-08-19T08:14:59;28.33;;;20.95;;
62202;SDS011;48199;49.138;7.414;2022-08-19T08:17:27;29.27;;;20.92;;
62202;SDS011;48199;49.138;7.414;2022-08-19T08:19:54;32.95;;;22.85;;
62202;SDS011;48199;49.138;7.414;2022-08-19T08:22:21;34.85;;;25.10;;
62202;SDS011;48199;49.138;7.414;2022-08-19T08:25:06;35.30;;;23.85;;
62202;SDS011;48199;49.138;7.414;2022-08-19T08:27:38;28.30;;;20.40;;
62202;SDS011;48199;49.138;7.414;2022-08-19T08:30:06;32.03;;;22.55;;
62202;SDS011;48199;49.138;7.414;2022-08-19T08:32:35;34.20;;;22.15;;
62202;SDS011;48199;49.138;7.414;2022-08-19T08:35:02;29.33;;;21.35;;
62202;SDS011;48199;49.138;7.414;2022-08-19T08:37:29;31.83;;;22.77;;
62202;SDS011;48199;49.138;7.414;2022-08-19T08:39:55;30.70;;;22.98;;
62202;SDS011;48199;49.138;7.414;2022-08-19T08:42:22;33.05;;;20.73;;
62202;SDS011;48199;49.138;7.414;2022-08-19T08:44:57;36.17;;;23.52;;
62202;SDS011;48199;49.138;7.414;2022-08-19T08:47:24;34.05;;;23.80;;
62202;SDS011;48199;49.138;7.414;2022-08-19T08:52:28;39.83;;;24.75;;
62202;SDS011;48199;49.138;7.414;2022-08-19T08:58:07;33.70;;;23.17;;
62202;SDS011;48199;49.138;7.414;2022-08-19T09:00:17;34.33;;;22.35;;
62202;SDS011;48199;49.138;7.414;2022-08-19T09:02:45;32.92;;;20.88;;
62202;SDS011;48199;49.138;7.414;2022-08-19T09:05:11;27.92;;;20.17;;
62202;SDS011;48199;49.138;7.414;2022-08-19T09:10:34;22.63;;;17.40;;
62202;SDS011;48199;49.138;7.414;2022-08-19T09:13:48;26.35;;;20.92;;
62202;SDS011;48199;49.138;7.414;2022-08-19T09:16:00;28.45;;;19.02;;
62202;SDS011;48199;49.138;7.414;2022-08-19T09:18:47;29.80;;;18.90;;
62202;SDS011;48199;49.138;7.414;2022-08-19T09:21:17;27.88;;;17.00;;
62202;SDS011;48199;49.138;7.414;2022-08-19T09:23:45;22.92;;;16.35;;
62202;SDS011;48199;49.138;7.414;2022-08-19T09:26:14;29.63;;;17.27;;
62202;SDS011;48199;49.138;7.414;2022-08-19T09:28:42;23.60;;;16.45;;
62202;SDS011;48199;49.138;7.414;2022-08-19T09:31:12;24.30;;;17.75;;
62202;SDS011;48199;49.138;7.414;2022-08-19T09:33:42;24.40;;;15.93;;
62202;SDS011;48199;49.138;7.414;2022-08-19T09:36:09;23.48;;;15.38;;
62202;SDS011;48199;49.138;7.414;2022-08-19T09:38:36;18.00;;;13.73;;
62202;SDS011;48199;49.138;7.414;2022-08-19T09:41:06;19.77;;;14.75;;
62202;SDS011;48199;49.138;7.414;2022-08-19T09:43:40;22.70;;;15.13;;
62202;SDS011;48199;49.138;7.414;2022-08-19T09:46:08;18.45;;;13.27;;
62202;SDS011;48199;49.138;7.414;2022-08-19T09:48:36;17.30;;;12.88;;
62202;SDS011;48199;49.138;7.414;2022-08-19T09:51:03;22.33;;;14.23;;
62202;SDS011;48199;49.138;7.414;2022-08-19T09:53:29;26.98;;;15.50;;
62202;SDS011;48199;49.138;7.414;2022-08-19T09:55:54;27.48;;;13.82;;
62202;SDS011;48199;49.138;7.414;2022-08-19T09:58:20;20.45;;;14.25;;
62202;SDS011;48199;49.138;7.414;2022-08-19T10:00:45;19.58;;;13.32;;
62202;SDS011;48199;49.138;7.414;2022-08-19T10:03:11;18.98;;;12.43;;
62202;SDS011;48199;49.138;7.414;2022-08-19T10:05:36;19.17;;;12.85;;
62202;SDS011;48199;49.138;7.414;2022-08-19T10:08:18;20.52;;;12.02;;
62202;SDS011;48199;49.138;7.414;2022-08-19T10:10:46;15.25;;;10.13;;
62202;SDS011;48199;49.138;7.414;2022-08-19T10:13:13;13.55;;;9.95;;
62202;SDS011;48199;49.138;7.414;2022-08-19T10:15:40;15.10;;;9.55;;
62202;SDS011;48199;49.138;7.414;2022-08-19T10:18:06;12.15;;;10.18;;
62202;SDS011;48199;49.138;7.414;2022-08-19T10:20:32;17.33;;;9.82;;
62202;SDS011;48199;49.138;7.414;2022-08-19T10:22:57;15.70;;;10.50;;
62202;SDS011;48199;49.138;7.414;2022-08-19T10:25:26;16.95;;;11.43;;
62202;SDS011;48199;49.138;7.414;2022-08-19T10:27:52;15.52;;;10.63;;
62202;SDS011;48199;49.138;7.414;2022-08-19T10:30:18;14.55;;;10.25;;
62202;SDS011;48199;49.138;7.414;2022-08-19T10:32:44;12.43;;;9.10;;
62202;SDS011;48199;49.138;7.414;2022-08-19T10:35:10;20.25;;;10.52;;
62202;SDS011;48199;49.138;7.414;2022-08-19T10:37:37;15.10;;;9.07;;
62202;SDS011;48199;49.138;7.414;2022-08-19T10:40:04;19.50;;;10.63;;
62202;SDS011;48199;49.138;7.414;2022-08-19T10:42:32;18.73;;;11.02;;
62202;SDS011;48199;49.138;7.414;2022-08-19T10:44:58;21.27;;;10.88;;
62202;SDS011;48199;49.138;7.414;2022-08-19T10:47:23;20.70;;;11.65;;
62202;SDS011;48199;49.138;7.414;2022-08-19T10:49:49;23.85;;;11.00;;
62202;SDS011;48199;49.138;7.414;2022-08-19T10:52:33;16.88;;;10.88;;
62202;SDS011;48199;49.138;7.414;2022-08-19T10:55:08;17.77;;;10.95;;
62202;SDS011;48199;49.138;7.414;2022-08-19T10:57:52;15.90;;;9.73;;
62202;SDS011;48199;49.138;7.414;2022-08-19T11:00:18;15.27;;;10.75;;
62202;SDS011;48199;49.138;7.414;2022-08-19T11:02:48;16.77;;;10.65;;
62202;SDS011;48199;49.138;7.414;2022-08-19T11:05:14;15.30;;;9.88;;
62202;SDS011;48199;49.138;7.414;2022-08-19T11:07:40;16.08;;;10.57;;
62202;SDS011;48199;49.138;7.414;2022-08-19T11:10:07;15.32;;;9.93;;
62202;SDS011;48199;49.138;7.414;2022-08-19T11:12:36;15.98;;;9.95;;
62202;SDS011;48199;49.138;7.414;2022-08-19T11:15:04;14.85;;;10.57;;
62202;SDS011;48199;49.138;7.414;2022-08-19T11:17:32;17.92;;;10.52;;
62202;SDS011;48199;49.138;7.414;2022-08-19T11:19:58;16.98;;;10.77;;
62202;SDS011;48199;49.138;7.414;2022-08-19T11:22:24;15.88;;;10.43;;
62202;SDS011;48199;49.138;7.414;2022-08-19T11:24:50;15.63;;;10.02;;
62202;SDS011;48199;49.138;7.414;2022-08-19T11:27:15;25.05;;;10.10;;
62202;SDS011;48199;49.138;7.414;2022-08-19T11:29:40;15.30;;;9.20;;
62202;SDS011;48199;49.138;7.414;2022-08-19T11:32:07;15.45;;;10.05;;
62202;SDS011;48199;49.138;7.414;2022-08-19T11:34:34;17.35;;;10.52;;
62202;SDS011;48199;49.138;7.414;2022-08-19T11:37:01;13.43;;;10.20;;
62202;SDS011;48199;49.138;7.414;2022-08-19T11:39:29;12.95;;;9.48;;
62202;SDS011;48199;49.138;7.414;2022-08-19T11:41:57;14.23;;;10.00;;
62202;SDS011;48199;49.138;7.414;2022-08-19T11:44:24;12.13;;;8.48;;
62202;SDS011;48199;49.138;7.414;2022-08-19T11:46:50;20.52;;;9.55;;
62202;SDS011;48199;49.138;7.414;2022-08-19T11:49:17;14.13;;;10.00;;
62202;SDS011;48199;49.138;7.414;2022-08-19T11:51:44;15.23;;;9.45;;
62202;SDS011;48199;49.138;7.414;2022-08-19T11:54:10;15.88;;;10.63;;
62202;SDS011;48199;49.138;7.414;2022-08-19T11:56:37;16.95;;;11.10;;
62202;SDS011;48199;49.138;7.414;2022-08-19T11:59:03;17.15;;;10.15;;
62202;SDS011;48199;49.138;7.414;2022-08-19T12:01:29;13.52;;;9.18;;
62202;SDS011;48199;49.138;7.414;2022-08-19T12:03:55;14.73;;;9.52;;
62202;SDS011;48199;49.138;7.414;2022-08-19T12:06:31;12.13;;;8.73;;
62202;SDS011;48199;49.138;7.414;2022-08-19T12:08:59;15.18;;;8.50;;
62202;SDS011;48199;49.138;7.414;2022-08-19T12:11:30;10.52;;;8.40;;
62202;SDS011;48199;49.138;7.414;2022-08-19T12:13:55;9.88;;;7.22;;
62202;SDS011;48199;49.138;7.414;2022-08-19T12:16:22;11.98;;;8.73;;
62202;SDS011;48199;49.138;7.414;2022-08-19T12:18:51;12.93;;;7.60;;
62202;SDS011;48199;49.138;7.414;2022-08-19T12:21:21;16.83;;;9.10;;
62202;SDS011;48199;49.138;7.414;2022-08-19T12:23:50;19.02;;;8.95;;
62202;SDS011;48199;49.138;7.414;2022-08-19T12:26:16;14.73;;;8.73;;
62202;SDS011;48199;49.138;7.414;2022-08-19T12:28:42;15.05;;;9.38;;
62202;SDS011;48199;49.138;7.414;2022-08-19T12:31:08;18.02;;;8.73;;
62202;SDS011;48199;49.138;7.414;2022-08-19T12:33:36;17.17;;;8.88;;
62202;SDS011;48199;49.138;7.414;2022-08-19T12:36:03;18.23;;;8.55;;
62202;SDS011;48199;49.138;7.414;2022-08-19T12:38:30;11.63;;;7.82;;
62202;SDS011;48199;49.138;7.414;2022-08-19T12:40:57;12.65;;;7.75;;
62202;SDS011;48199;49.138;7.414;2022-08-19T12:43:23;11.00;;;6.93;;
62202;SDS011;48199;49.138;7.414;2022-08-19T12:45:49;12.68;;;7.55;;
62202;SDS011;48199;49.138;7.414;2022-08-19T12:48:14;11.93;;;7.70;;
62202;SDS011;48199;49.138;7.414;2022-08-19T12:50:40;17.17;;;7.20;;
62202;SDS011;48199;49.138;7.414;2022-08-19T12:53:06;11.48;;;7.47;;
62202;SDS011;48199;49.138;7.414;2022-08-19T12:55:31;9.98;;;6.72;;
62202;SDS011;48199;49.138;7.414;2022-08-19T12:57:57;12.30;;;7.13;;
62202;SDS011;48199;49.138;7.414;2022-08-19T13:00:22;15.18;;;7.25;;
62202;SDS011;48199;49.138;7.414;2022-08-19T13:02:49;9.45;;;5.82;;
62202;SDS011;48199;49.138;7.414;2022-08-19T13:05:18;11.57;;;6.68;;
62202;SDS011;48199;49.138;7.414;2022-08-19T13:07:47;9.75;;;6.20;;
62202;SDS011;48199;49.138;7.414;2022-08-19T13:10:15;18.77;;;6.50;;
62202;SDS011;48199;49.138;7.414;2022-08-19T13:12:43;13.48;;;6.28;;
62202;SDS011;48199;49.138;7.414;2022-08-19T13:15:09;27.25;;;7.20;;
62202;SDS011;48199;49.138;7.414;2022-08-19T13:17:36;21.73;;;7.55;;
62202;SDS011;48199;49.138;7.414;2022-08-19T13:20:03;28.00;;;12.50;;
62202;SDS011;48199;49.138;7.414;2022-08-19T13:22:30;19.38;;;10.65;;
62202;SDS011;48199;49.138;7.414;2022-08-19T13:24:56;17.98;;;11.10;;
62202;SDS011;48199;49.138;7.414;2022-08-19T13:27:21;26.15;;;11.75;;
62202;SDS011;48199;49.138;7.414;2022-08-19T13:29:47;17.50;;;11.80;;
62202;SDS011;48199;49.138;7.414;2022-08-19T13:32:30;14.20;;;9.65;;
62202;SDS011;48199;49.138;7.414;2022-08-19T13:35:15;19.08;;;10.85;;
62202;SDS011;48199;49.138;7.414;2022-08-19T13:37:41;16.63;;;10.80;;
62202;SDS011;48199;49.138;7.414;2022-08-19T13:40:08;19.90;;;12.20;;
62202;SDS011;48199;49.138;7.414;2022-08-19T13:42:47;18.08;;;11.75;;
62202;SDS011;48199;49.138;7.414;2022-08-19T13:45:15;17.55;;;12.23;;
62202;SDS011;48199;49.138;7.414;2022-08-19T13:47:48;20.98;;;12.15;;
62202;SDS011;48199;49.138;7.414;2022-08-19T13:50:20;18.70;;;12.57;;
62202;SDS011;48199;49.138;7.414;2022-08-19T13:52:47;19.35;;;13.15;;
62202;SDS011;48199;49.138;7.414;2022-08-19T13:55:13;22.95;;;14.13;;
62202;SDS011;48199;49.138;7.414;2022-08-19T13:57:40;29.17;;;15.18;;
62202;SDS011;48199;49.138;7.414;2022-08-19T14:00:16;25.20;;;16.17;;
62202;SDS011;48199;49.138;7.414;2022-08-19T14:02:43;26.73;;;16.55;;
62202;SDS011;48199;49.138;7.414;2022-08-19T14:05:11;28.58;;;16.08;;
62202;SDS011;48199;49.138;7.414;2022-08-19T14:07:37;24.42;;;15.68;;
62202;SDS011;48199;49.138;7.414;2022-08-19T14:10:04;35.92;;;17.00;;
62202;SDS011;48199;49.138;7.414;2022-08-19T14:12:31;29.25;;;17.65;;
62202;SDS011;48199;49.138;7.414;2022-08-19T14:14:57;24.58;;;15.45;;
62202;SDS011;48199;49.138;7.414;2022-08-19T14:17:22;33.55;;;16.02;;
62202;SDS011;48199;49.138;7.414;2022-08-19T14:19:48;23.52;;;15.30;;
62202;SDS011;48199;49.138;7.414;2022-08-19T14:22:13;23.88;;;15.25;;
62202;SDS011;48199;49.138;7.414;2022-08-19T14:24:38;31.83;;;15.02;;
62202;SDS011;48199;49.138;7.414;2022-08-19T14:27:07;22.80;;;14.27;;
62202;SDS011;48199;49.138;7.414;2022-08-19T14:29:33;23.85;;;14.68;;
62202;SDS011;48199;49.138;7.414;2022-08-19T14:31:59;28.92;;;13.90;;
62202;SDS011;48199;49.138;7.414;2022-08-19T14:34:25;21.52;;;13.05;;
62202;SDS011;48199;49.138;7.414;2022-08-19T14:36:51;20.55;;;13.60;;
62202;SDS011;48199;49.138;7.414;2022-08-19T14:39:16;20.90;;;13.15;;
62202;SDS011;48199;49.138;7.414;2022-08-19T14:41:42;25.67;;;13.95;;